createdAt,value
2022-09-01T00:01:28.383Z,100948.13
2022-09-01T00:03:56.043Z,100947.13
2022-09-01T00:06:23.887Z,100943.31
2022-09-01T00:08:51.416Z,100939.47
2022-09-01T00:11:18.761Z,100943.31
2022-09-01T00:13:45.471Z,100938.47
2022-09-01T00:16:14.153Z,100938.97
2022-09-01T00:18:42.373Z,100943.09
2022-09-01T00:21:10.182Z,100937.75
2022-09-01T00:23:37.369Z,100939.16
2022-09-01T00:26:04.918Z,100938.66
2022-09-01T00:28:35.661Z,100938.13
2022-09-01T00:31:02.969Z,100934.34
2022-09-01T00:33:29.484Z,100931.13
2022-09-01T00:35:56.360Z,100932.53
2022-09-01T00:38:22.852Z,100924.38
2022-09-01T00:40:50.039Z,100932.81
2022-09-01T00:43:22.757Z,100931.19
2022-09-01T00:45:51.842Z,100934.41
2022-09-01T00:48:20.403Z,100932.81
2022-09-01T00:50:49.530Z,100932.81
2022-09-01T00:53:19.209Z,100926.09
2022-09-01T00:55:45.787Z,100935.03
2022-09-01T00:58:18.343Z,100935.59
2022-09-01T01:00:49.637Z,100944.88
2022-09-01T01:03:16.217Z,100946.28
2022-09-01T01:05:46.715Z,100940.00
2022-09-01T01:08:13.217Z,100937.31
2022-09-01T01:10:42.195Z,100939.00
2022-09-01T01:13:10.266Z,100939.00
2022-09-01T01:15:36.934Z,100940.63
2022-09-01T01:18:03.504Z,100934.75
2022-09-01T01:20:50.339Z,100935.34
2022-09-01T01:23:37.165Z,100941.38
2022-09-01T01:26:05.470Z,100940.34
2022-09-01T01:28:34.011Z,100938.16
2022-09-01T01:31:23.028Z,100937.66
2022-09-01T01:33:54.861Z,100938.22
2022-09-01T01:36:27.041Z,100931.72
2022-09-01T01:38:55.527Z,100930.59
2022-09-01T01:41:24.165Z,100936.03
2022-09-01T01:43:51.044Z,100931.50
2022-09-01T01:46:19.090Z,100933.69
2022-09-01T01:48:47.098Z,100933.69
2022-09-01T01:51:17.483Z,100937.81
2022-09-01T01:53:45.204Z,100932.97
2022-09-01T01:56:11.687Z,100932.44
2022-09-01T01:58:40.479Z,100930.34
2022-09-01T02:01:12.583Z,100931.44
2022-09-01T02:03:39.844Z,100935.41
2022-09-01T02:06:10.152Z,100939.81
2022-09-01T02:08:38.305Z,100927.94
2022-09-01T02:11:06.065Z,100930.75
2022-09-01T02:13:32.710Z,100924.31
2022-09-01T02:16:01.108Z,100928.09
2022-09-01T02:18:37.709Z,100927.59
2022-09-01T02:21:12.772Z,100924.69
2022-09-01T02:23:41.861Z,100931.31
2022-09-01T02:26:18.515Z,100926.91
2022-09-01T02:28:55.797Z,100930.75
2022-09-01T02:31:27.875Z,100931.09
2022-09-01T02:33:55.071Z,100931.69
2022-09-01T02:36:22.299Z,100934.19
2022-09-01T02:38:53.169Z,100928.25
2022-09-01T02:41:23.035Z,100927.81
2022-09-01T02:43:50.151Z,100927.81
2022-09-01T02:46:16.867Z,100929.22
2022-09-01T02:48:46.108Z,100933.00
2022-09-01T02:51:15.574Z,100928.47
2022-09-01T02:53:43.594Z,100935.56
2022-09-01T02:56:14.123Z,100931.78
2022-09-01T02:58:46.329Z,100931.88
2022-09-01T03:01:15.015Z,100941.88
2022-09-01T03:03:41.704Z,100929.22
2022-09-01T03:06:10.203Z,100928.66
2022-09-01T03:08:39.613Z,100925.84
2022-09-01T03:11:13.270Z,100935.09
2022-09-01T03:13:40.856Z,100936.19
2022-09-01T03:16:08.163Z,100937.56
2022-09-01T03:18:34.956Z,100929.38
2022-09-01T03:21:02.429Z,100929.09
2022-09-01T03:23:31.369Z,100931.28
2022-09-01T03:25:58.379Z,100924.84
2022-09-01T03:28:25.379Z,100936.53
2022-09-01T03:30:55.574Z,100931.66
2022-09-01T03:33:23.196Z,100935.09
2022-09-01T03:35:50.033Z,100943.78
2022-09-01T03:38:23.099Z,100935.66
2022-09-01T03:40:52.719Z,100943.28
2022-09-01T03:43:23.334Z,100948.13
2022-09-01T03:45:49.986Z,100944.31
2022-09-01T03:48:17.142Z,100938.88
2022-09-01T03:50:47.144Z,100935.66
2022-09-01T03:53:15.640Z,100940.56
2022-09-01T03:55:45.074Z,100947.09
2022-09-01T03:58:14.444Z,100945.47
2022-09-01T04:00:48.784Z,100949.84
2022-09-01T04:03:28.546Z,100948.81
2022-09-01T04:05:55.895Z,100946.72
2022-09-01T04:08:32.542Z,100945.94
2022-09-01T04:11:00.691Z,100939.84
2022-09-01T04:13:30.402Z,100946.69
2022-09-01T04:15:57.652Z,100948.03
2022-09-01T04:18:24.877Z,100942.03
2022-09-01T04:20:56.822Z,100941.53
2022-09-01T04:23:26.607Z,100941.25
2022-09-01T04:25:56.569Z,100945.84
2022-09-01T04:28:26.248Z,100936.34
2022-09-01T04:30:55.887Z,100942.63
2022-09-01T04:33:34.855Z,100937.53
2022-09-01T04:36:02.857Z,100942.75
2022-09-01T04:38:30.586Z,100945.13
2022-09-01T04:41:00.070Z,100947.56
2022-09-01T04:43:26.587Z,100947.00
2022-09-01T04:45:53.782Z,100944.59
2022-09-01T04:48:22.099Z,100942.16
2022-09-01T04:50:51.945Z,100949.75
2022-09-01T04:53:25.025Z,100945.44
2022-09-01T04:55:55.397Z,100942.50
2022-09-01T04:58:24.629Z,100945.13
2022-09-01T05:00:55.904Z,100944.81
2022-09-01T05:03:24.269Z,100945.03
2022-09-01T05:06:17.604Z,100947.00
2022-09-01T05:08:49.836Z,100950.56
2022-09-01T05:11:37.539Z,100952.22
2022-09-01T05:14:10.217Z,100953.09
2022-09-01T05:16:37.788Z,100945.28
2022-09-01T05:19:04.702Z,100948.03
2022-09-01T05:21:37.629Z,100947.78
2022-09-01T05:24:05.063Z,100946.69
2022-09-01T05:26:34.609Z,100946.63
2022-09-01T05:29:03.143Z,100951.41
2022-09-01T05:31:37.836Z,100950.28
2022-09-01T05:34:04.947Z,100958.88
2022-09-01T05:36:33.288Z,100950.44
2022-09-01T05:39:00.848Z,100950.75
2022-09-01T05:41:28.475Z,100957.50
2022-09-01T05:43:59.978Z,100961.50
2022-09-01T05:46:28.186Z,100955.97
2022-09-01T05:48:55.928Z,100960.19
2022-09-01T05:51:43.379Z,100960.81
2022-09-01T05:54:12.119Z,100959.06
2022-09-01T05:56:43.631Z,100952.13
2022-09-01T05:59:23.579Z,100962.16
2022-09-01T06:01:52.908Z,100965.16
2022-09-01T06:04:19.920Z,100960.09
2022-09-01T06:07:06.573Z,100957.50
2022-09-01T06:09:38.114Z,100961.97
2022-09-01T06:12:06.530Z,100957.28
2022-09-01T06:14:33.234Z,100957.06
2022-09-01T06:17:00.943Z,100958.41
2022-09-01T06:19:27.491Z,100959.56
2022-09-01T06:21:56.779Z,100966.63
2022-09-01T06:24:23.573Z,100970.94
2022-09-01T06:26:51.013Z,100969.47
2022-09-01T06:29:17.665Z,100963.94
2022-09-01T06:31:51.744Z,100963.50
2022-09-01T06:34:19.660Z,100959.97
2022-09-01T06:36:48.444Z,100966.13
2022-09-01T06:39:19.898Z,100952.16
2022-09-01T06:41:53.122Z,100961.31
2022-09-01T06:44:24.642Z,100964.66
2022-09-01T06:46:59.896Z,100965.44
2022-09-01T06:49:33.217Z,100960.78
2022-09-01T06:52:01.300Z,100967.00
2022-09-01T06:54:29.818Z,100973.22
2022-09-01T06:56:57.535Z,100968.03
2022-09-01T06:59:34.461Z,100971.31
2022-09-01T07:02:04.829Z,100970.69
2022-09-01T07:05:02.809Z,100982.59
2022-09-01T07:14:14.519Z,100994.91
2022-09-01T07:19:15.067Z,100987.84
2022-09-01T07:22:08.243Z,100989.47
2022-09-01T07:24:37.648Z,100988.56
2022-09-01T07:27:50.602Z,100990.97
2022-09-01T07:44:47.291Z,101001.94
2022-09-01T07:47:55.462Z,101003.50
2022-09-01T07:51:34.145Z,100999.22
2022-09-01T07:53:12.629Z,101006.94
2022-09-01T07:55:41.305Z,101006.31
2022-09-01T07:58:09.506Z,100999.41
2022-09-01T08:00:37.155Z,101003.88
2022-09-01T08:03:07.075Z,100998.13
2022-09-01T08:05:33.873Z,101000.19
2022-09-01T08:08:01.476Z,101003.41
2022-09-01T08:10:32.063Z,101005.50
2022-09-01T08:12:58.884Z,101005.81
2022-09-01T08:18:17.054Z,101006.38
2022-09-01T08:20:47.727Z,101005.56
2022-09-01T08:23:33.926Z,101006.53
2022-09-01T08:26:04.784Z,101008.31
2022-09-01T08:28:31.706Z,101007.13
2022-09-01T08:31:00.218Z,101016.19
2022-09-01T08:33:28.040Z,101007.09
2022-09-01T08:35:55.494Z,101004.13
2022-09-01T08:38:22.909Z,101002.53
2022-09-01T08:40:56.071Z,101012.78
2022-09-01T08:43:33.505Z,101014.09
2022-09-01T08:46:27.139Z,101007.13
2022-09-01T08:52:22.461Z,101002.50
2022-09-01T08:54:56.211Z,101003.22
2022-09-01T08:57:27.522Z,100993.50
2022-09-01T09:00:23.319Z,100994.47
2022-09-01T09:02:58.862Z,100991.34
2022-09-01T09:05:28.520Z,100978.38
2022-09-01T09:08:09.569Z,100984.50
2022-09-01T09:10:48.116Z,100978.34
2022-09-01T09:13:22.270Z,100977.88
2022-09-01T09:15:52.076Z,100977.66
2022-09-01T09:18:39.223Z,100979.06
2022-09-01T09:21:18.087Z,100980.94
2022-09-01T09:23:46.977Z,100974.44
2022-09-01T09:26:27.218Z,100973.59
2022-09-01T09:29:08.722Z,100963.53
2022-09-01T09:33:08.948Z,100963.03
2022-09-01T09:38:29.370Z,100949.25
2022-09-01T09:41:18.980Z,100947.25
2022-09-01T09:44:01.171Z,100933.53
2022-09-01T09:46:44.352Z,100936.66
2022-09-01T09:49:10.994Z,100945.88
2022-09-01T09:51:38.624Z,100933.22
2022-09-01T09:54:16.350Z,100937.78
2022-09-01T09:56:46.626Z,100922.19
2022-09-01T09:59:56.038Z,100926.19
2022-09-01T10:02:23.163Z,100921.13
2022-09-01T10:04:55.892Z,100920.16
2022-09-01T10:07:34.735Z,100915.50
2022-09-01T10:10:04.484Z,100914.00
2022-09-01T10:12:32.071Z,100911.94
2022-09-01T10:15:12.530Z,100902.50
2022-09-01T10:17:45.342Z,100901.09
2022-09-01T10:20:18.739Z,100895.06
2022-09-01T10:22:48.562Z,100893.34
2022-09-01T10:25:22.037Z,100894.97
2022-09-01T10:27:59.840Z,100892.56
2022-09-01T10:30:27.435Z,100893.25
2022-09-01T10:33:07.001Z,100899.25
2022-09-01T10:35:47.475Z,100897.56
2022-09-01T10:38:22.913Z,100897.91
2022-09-01T10:41:07.223Z,100901.72
2022-09-01T10:43:41.097Z,100895.81
2022-09-01T10:46:24.751Z,100883.75
2022-09-01T10:49:03.195Z,100890.16
2022-09-01T10:51:36.223Z,100890.03
2022-09-01T10:54:05.914Z,100891.03
2022-09-01T10:56:50.815Z,100887.69
2022-09-01T10:59:40.265Z,100884.75
2022-09-01T11:02:28.838Z,100883.31
2022-09-01T11:04:58.269Z,100875.84
2022-09-01T11:07:50.437Z,100874.72
2022-09-01T11:10:32.749Z,100866.38
2022-09-01T11:13:00.284Z,100861.88
2022-09-01T11:15:40.431Z,100863.41
2022-09-01T11:18:08.745Z,100876.22
2022-09-01T11:20:39.845Z,100866.44
2022-09-01T11:23:11.627Z,100859.88
2022-09-01T11:25:44.454Z,100863.00
2022-09-01T11:28:14.479Z,100854.09
2022-09-01T11:30:45.209Z,100859.03
2022-09-01T11:33:24.096Z,100843.56
2022-09-01T11:35:58.707Z,100853.59
2022-09-01T11:38:25.869Z,100842.94
2022-09-01T11:40:56.699Z,100847.59
2022-09-01T11:43:24.239Z,100845.66
2022-09-01T11:45:56.724Z,100838.22
2022-09-01T11:48:25.595Z,100833.81
2022-09-01T11:50:59.765Z,100839.31
2022-09-01T11:53:26.669Z,100834.41
2022-09-01T11:55:55.993Z,100836.03
2022-09-01T11:58:28.871Z,100837.06
2022-09-01T12:00:56.782Z,100830.84
2022-09-01T12:03:26.160Z,100829.13
2022-09-01T12:06:01.217Z,100822.84
2022-09-01T12:08:30.555Z,100828.56
2022-09-01T12:11:04.975Z,100824.78
2022-09-01T12:13:31.622Z,100831.91
2022-09-01T12:16:17.441Z,100819.19
2022-09-01T12:18:47.378Z,100820.63
2022-09-01T12:21:21.091Z,100818.88
2022-09-01T12:23:47.651Z,100810.09
2022-09-01T12:26:34.409Z,100810.75
2022-09-01T12:29:02.045Z,100819.94
2022-09-01T12:31:28.698Z,100812.34
2022-09-01T12:33:56.468Z,100810.44
2022-09-01T12:36:23.780Z,100814.34
2022-09-01T12:38:51.052Z,100800.84
2022-09-01T12:41:24.675Z,100803.88
2022-09-01T12:43:54.674Z,100802.63
2022-09-01T12:46:42.334Z,100801.41
2022-09-01T12:49:19.797Z,100799.13
2022-09-01T12:51:48.586Z,100812.81
2022-09-01T12:54:15.964Z,100800.88
2022-09-01T12:56:48.134Z,100803.19
2022-09-01T12:59:24.748Z,100805.81
2022-09-01T13:02:21.193Z,100806.44
2022-09-01T13:04:49.181Z,100812.22
2022-09-01T13:07:17.001Z,100805.31
2022-09-01T13:09:45.917Z,100805.63
2022-09-01T13:12:20.379Z,100806.88
2022-09-01T13:14:48.506Z,100803.47
2022-09-01T13:17:15.934Z,100800.59
2022-09-01T13:19:43.736Z,100795.16
2022-09-01T13:22:10.852Z,100784.88
2022-09-01T13:24:37.861Z,100783.91
2022-09-01T13:27:21.028Z,100778.31
2022-09-01T13:29:48.470Z,100785.25
2022-09-01T13:32:19.303Z,100783.13
2022-09-01T13:34:46.904Z,100776.97
2022-09-01T13:37:13.428Z,100773.97
2022-09-01T13:39:40.239Z,100776.97
2022-09-01T13:42:06.932Z,100780.72
2022-09-01T13:44:34.069Z,100765.25
2022-09-01T13:47:27.672Z,100768.84
2022-09-01T13:52:34.082Z,100767.63
2022-09-01T13:55:01.597Z,100766.66
2022-09-01T13:57:28.172Z,100767.44
2022-09-01T14:00:02.544Z,100761.50
2022-09-01T14:02:37.949Z,100755.81
2022-09-01T14:05:04.639Z,100756.91
2022-09-01T14:07:32.369Z,100761.22
2022-09-01T14:09:59.388Z,100754.34
2022-09-01T14:12:26.044Z,100759.03
2022-09-01T14:17:39.564Z,100761.16
2022-09-01T14:20:07.749Z,100756.22
2022-09-01T14:22:38.317Z,100757.38
2022-09-01T14:25:05.761Z,100750.75
2022-09-01T14:27:32.291Z,100743.66
2022-09-01T14:29:59.039Z,100756.63
2022-09-01T14:32:27.052Z,100748.25
2022-09-01T14:34:54.644Z,100744.13
2022-09-01T14:37:21.504Z,100748.13
2022-09-01T14:39:51.991Z,100739.28
2022-09-01T14:42:19.708Z,100741.41
2022-09-01T14:44:47.161Z,100738.00
2022-09-01T14:47:19.452Z,100735.88
2022-09-01T14:49:47.772Z,100732.88
2022-09-01T14:52:14.411Z,100738.50
2022-09-01T14:54:42.492Z,100738.47
2022-09-01T14:59:55.634Z,100730.44
2022-09-01T15:02:22.117Z,100725.03
2022-09-01T15:04:48.800Z,100733.31
2022-09-01T15:07:15.539Z,100723.22
2022-09-01T15:09:42.532Z,100723.34
2022-09-01T15:12:09.545Z,100720.16
2022-09-01T15:14:36.852Z,100723.75
2022-09-01T15:17:03.635Z,100712.63
2022-09-01T15:19:30.262Z,100717.91
2022-09-01T15:21:56.788Z,100714.88
2022-09-01T15:24:23.414Z,100720.91
2022-09-01T15:26:49.939Z,100718.72
2022-09-01T15:29:16.438Z,100717.25
2022-09-01T15:31:43.645Z,100711.56
2022-09-01T15:34:11.117Z,100716.34
2022-09-01T15:36:41.674Z,100717.94
2022-09-01T15:39:09.189Z,100711.34
2022-09-01T15:41:36.486Z,100712.78
2022-09-01T15:44:07.066Z,100714.25
2022-09-01T15:46:34.594Z,100721.28
2022-09-01T15:49:06.007Z,100712.16
2022-09-01T15:51:32.544Z,100705.53
2022-09-01T15:54:00.734Z,100712.78
2022-09-01T15:56:27.486Z,100706.13
2022-09-01T15:59:02.193Z,100711.19
2022-09-01T16:01:30.442Z,100706.56
2022-09-01T16:03:57.514Z,100701.25
2022-09-01T16:06:24.097Z,100709.75
2022-09-01T16:08:50.971Z,100703.22
2022-09-01T16:11:17.636Z,100706.94
2022-09-01T16:13:44.270Z,100705.28
2022-09-01T16:16:32.112Z,100700.69
2022-09-01T16:19:02.132Z,100694.63
2022-09-01T16:21:45.799Z,100694.34
2022-09-01T16:24:13.224Z,100697.47
2022-09-01T16:26:40.366Z,100692.31
2022-09-01T16:29:15.085Z,100690.34
2022-09-01T16:31:42.695Z,100690.00
2022-09-01T16:34:18.170Z,100688.59
2022-09-01T16:37:01.537Z,100680.63
2022-09-01T16:39:39.883Z,100692.56
2022-09-01T16:42:22.981Z,100683.91
2022-09-01T16:44:56.151Z,100688.06
2022-09-01T16:47:37.916Z,100685.41
2022-09-01T16:50:15.140Z,100686.97
2022-09-01T16:53:02.614Z,100688.34
2022-09-01T16:55:41.519Z,100686.56
2022-09-01T16:58:21.617Z,100679.97
2022-09-01T17:00:57.221Z,100685.31
2022-09-01T17:03:42.949Z,100681.91
2022-09-01T17:06:15.793Z,100682.47
2022-09-01T17:08:55.428Z,100678.53
2022-09-01T17:11:27.177Z,100679.47
2022-09-01T17:13:56.067Z,100681.72
2022-09-01T17:16:26.922Z,100682.88
2022-09-01T17:18:55.684Z,100682.88
2022-09-01T17:21:25.682Z,100682.53
2022-09-01T17:23:57.541Z,100685.75
2022-09-01T17:26:26.226Z,100685.63
2022-09-01T17:29:00.383Z,100683.00
2022-09-01T17:31:46.088Z,100682.66
2022-09-01T17:34:28.053Z,100687.19
2022-09-01T17:37:32.654Z,100692.47
2022-09-01T17:39:59.649Z,100689.97
2022-09-01T17:42:30.201Z,100694.66
2022-09-01T17:45:19.989Z,100686.81
2022-09-01T17:47:52.999Z,100702.34
2022-09-01T17:50:33.499Z,100695.03
2022-09-01T17:53:10.901Z,100696.19
2022-09-01T17:55:59.404Z,100703.91
2022-09-01T17:58:46.161Z,100705.47
2022-09-01T18:01:34.591Z,100694.50
2022-09-01T18:04:13.372Z,100697.63
2022-09-01T18:06:46.423Z,100704.09
2022-09-01T18:09:15.443Z,100703.81
2022-09-01T18:11:45.131Z,100705.63
2022-09-01T18:14:15.784Z,100713.59
2022-09-01T18:16:42.422Z,100714.94
2022-09-01T18:19:16.438Z,100714.66
2022-09-01T18:21:49.254Z,100716.00
2022-09-01T18:24:19.154Z,100716.13
2022-09-01T18:26:50.254Z,100725.34
2022-09-01T18:29:17.256Z,100731.47
2022-09-01T18:32:02.459Z,100733.75
2022-09-01T18:34:48.841Z,100738.75
2022-09-01T18:37:25.102Z,100743.28
2022-09-01T18:40:13.347Z,100746.34
2022-09-01T18:42:40.049Z,100747.59
2022-09-01T18:45:25.557Z,100745.09
2022-09-01T18:48:11.096Z,100745.56
2022-09-01T18:51:00.302Z,100748.28
2022-09-01T18:53:26.779Z,100756.03
2022-09-01T18:56:08.539Z,100755.56
2022-09-01T18:58:44.166Z,100755.56
2022-09-01T19:01:13.824Z,100761.88
2022-09-01T19:03:46.383Z,100761.09
2022-09-01T19:06:37.883Z,100764.13
2022-09-01T19:09:14.552Z,100763.69
2022-09-01T19:11:41.093Z,100754.53
2022-09-01T19:17:14.024Z,100759.75
2022-09-01T19:19:40.534Z,100759.91
2022-09-01T19:22:08.526Z,100763.31
2022-09-01T19:24:40.931Z,100762.38
2022-09-01T19:27:13.045Z,100762.38
2022-09-01T19:29:45.193Z,100767.38
2022-09-01T19:32:18.139Z,100768.50
2022-09-01T19:34:56.652Z,100767.91
2022-09-01T19:37:23.552Z,100765.63
2022-09-01T19:39:54.157Z,100774.19
2022-09-01T19:42:27.276Z,100771.09
2022-09-01T19:44:56.853Z,100770.31
2022-09-01T19:47:45.663Z,100762.31
2022-09-01T19:50:32.694Z,100765.38
2022-09-01T19:53:10.302Z,100761.38
2022-09-01T19:55:56.184Z,100767.63
2022-09-01T19:58:27.092Z,100761.22
2022-09-01T20:00:58.261Z,100752.56
2022-09-01T20:03:29.266Z,100760.94
2022-09-01T20:06:06.495Z,100764.78
2022-09-01T20:08:39.653Z,100767.03
2022-09-01T20:11:15.386Z,100758.69
2022-09-01T20:13:50.066Z,100759.06
2022-09-01T20:16:26.648Z,100764.03
2022-09-01T20:19:04.596Z,100748.78
2022-09-01T20:21:31.743Z,100758.41
2022-09-01T20:24:08.309Z,100750.06
2022-09-01T20:26:55.000Z,100757.00
2022-09-01T20:29:28.143Z,100756.84
2022-09-01T20:31:56.859Z,100757.50
2022-09-01T20:34:38.441Z,100764.06
2022-09-01T20:37:18.208Z,100758.50
2022-09-01T20:40:02.609Z,100757.22
2022-09-01T20:42:31.426Z,100753.69
2022-09-01T20:45:00.004Z,100758.22
2022-09-01T20:47:27.795Z,100764.94
2022-09-01T20:49:54.631Z,100764.94
2022-09-01T20:52:38.397Z,100761.88
2022-09-01T20:55:23.756Z,100758.22
2022-09-01T20:57:50.301Z,100763.81
2022-09-01T21:00:25.951Z,100764.94
2022-09-01T21:03:01.698Z,100759.34
2022-09-01T21:05:28.788Z,100755.31
2022-09-01T21:08:08.348Z,100762.22
2022-09-01T21:10:53.951Z,100763.38
2022-09-01T21:13:25.088Z,100764.16
2022-09-01T21:16:00.160Z,100759.50
2022-09-01T21:18:29.738Z,100758.38
2022-09-01T21:21:23.309Z,100761.44
2022-09-01T21:23:49.950Z,100759.97
2022-09-01T21:26:16.653Z,100754.34
2022-09-01T21:28:48.045Z,100760.63
2022-09-01T21:31:14.879Z,100758.69
2022-09-01T21:33:41.503Z,100760.28
2022-09-01T21:36:08.377Z,100755.66
2022-09-01T21:38:35.604Z,100760.63
2022-09-01T21:41:02.508Z,100760.63
2022-09-01T21:43:31.455Z,100758.22
2022-09-01T21:45:58.317Z,100761.94
2022-09-01T21:48:24.952Z,100753.91
2022-09-01T21:50:51.453Z,100759.19
2022-09-01T21:53:18.113Z,100754.72
2022-09-01T21:55:45.343Z,100758.41
2022-09-01T21:58:11.917Z,100755.53
2022-09-01T22:00:39.547Z,100749.59
2022-09-01T22:03:07.066Z,100748.00
2022-09-01T22:05:35.765Z,100744.31
2022-09-01T22:08:02.600Z,100744.47
2022-09-01T22:10:30.407Z,100742.56
2022-09-01T22:12:59.120Z,100740.00
2022-09-01T22:15:26.150Z,100740.78
2022-09-01T22:17:53.288Z,100740.78
2022-09-01T22:20:22.315Z,100740.78
2022-09-01T22:22:49.143Z,100742.22
2022-09-01T22:25:17.274Z,100746.56
2022-09-01T22:27:43.782Z,100741.72
2022-09-01T22:30:11.135Z,100732.56
2022-09-01T22:32:37.907Z,100735.47
2022-09-01T22:35:06.193Z,100729.38
2022-09-01T22:37:32.897Z,100735.91
2022-09-01T22:39:59.565Z,100730.00
2022-09-01T22:42:26.109Z,100736.09
2022-09-01T22:44:52.653Z,100736.69
2022-09-01T22:47:19.275Z,100727.44
2022-09-01T22:49:45.830Z,100740.25
2022-09-01T22:52:12.611Z,100735.09
2022-09-01T22:54:40.484Z,100737.94
2022-09-01T22:57:07.051Z,100744.63
2022-09-01T22:59:33.579Z,100744.50
2022-09-01T23:02:01.802Z,100750.38
2022-09-01T23:04:31.970Z,100744.44
2022-09-01T23:06:58.653Z,100752.78
2022-09-01T23:09:25.234Z,100751.19
2022-09-01T23:11:51.874Z,100750.16
2022-09-01T23:14:18.587Z,100755.09
2022-09-01T23:16:45.410Z,100751.25
2022-09-01T23:19:12.092Z,100749.03
2022-09-01T23:21:38.844Z,100743.09
2022-09-01T23:24:06.005Z,100745.47
2022-09-01T23:26:32.547Z,100749.94
2022-09-01T23:28:59.633Z,100746.09
2022-09-01T23:31:28.059Z,100752.16
2022-09-01T23:33:54.832Z,100745.38
2022-09-01T23:36:22.370Z,100746.75
2022-09-01T23:38:49.656Z,100742.94
2022-09-01T23:41:18.491Z,100743.41
2022-09-01T23:43:45.000Z,100746.13
2022-09-01T23:46:25.148Z,100750.94
2022-09-01T23:48:52.418Z,100744.84
2022-09-01T23:51:19.514Z,100746.72
2022-09-01T23:53:46.649Z,100743.19
2022-09-01T23:56:14.903Z,100736.63
2022-09-01T23:58:42.091Z,100738.41
